createdAt,value
2019-03-29T00:03:57.119Z,8.50
2019-03-29T00:06:45.042Z,8.29
2019-03-29T00:11:48.336Z,8.23
2019-03-29T00:14:36.447Z,8.08
2019-03-29T00:17:05.966Z,8.11
2019-03-29T00:19:34.884Z,7.99
2019-03-29T00:22:04.941Z,8.13
2019-03-29T00:24:33.992Z,8.18
2019-03-29T00:27:42.436Z,8.20
2019-03-29T00:33:06.744Z,8.23
2019-03-29T00:38:42.911Z,8.24
2019-03-29T00:41:51.653Z,8.17
2019-03-29T00:45:00.373Z,8.16
2019-03-29T00:47:30.076Z,8.13
2019-03-29T00:53:14.138Z,8.24
2019-03-29T00:56:02.584Z,8.24
2019-03-29T01:04:29.108Z,8.30
2019-03-29T01:06:59.387Z,8.34
2019-03-29T01:10:08.059Z,8.17
2019-03-29T01:15:13.689Z,8.19
2019-03-29T01:18:01.888Z,8.42
2019-03-29T01:21:10.581Z,8.30
2019-03-29T01:23:58.480Z,8.41
2019-03-29T01:26:46.833Z,8.45
2019-03-29T01:29:35.295Z,8.50
2019-03-29T01:32:44.081Z,8.51
2019-03-29T01:35:33.956Z,8.44
2019-03-29T01:38:03.759Z,8.43
2019-03-29T01:43:20.551Z,8.28
2019-03-29T01:48:44.254Z,8.31
2019-03-29T01:54:40.583Z,8.10
2019-03-29T01:57:29.382Z,8.13
2019-03-29T02:02:53.900Z,8.01
2019-03-29T02:08:35.835Z,7.85
2019-03-29T02:11:20.251Z,7.92
2019-03-29T02:14:08.522Z,7.70
2019-03-29T02:17:15.542Z,7.73
2019-03-29T02:19:44.178Z,7.57
2019-03-29T02:22:32.110Z,7.54
2019-03-29T02:25:21.013Z,7.55
2019-03-29T02:28:08.918Z,7.53
2019-03-29T02:30:56.824Z,7.46
2019-03-29T02:33:26.520Z,7.33
2019-03-29T02:39:02.019Z,7.34
2019-03-29T02:41:49.830Z,7.30
2019-03-29T02:44:37.892Z,7.21
2019-03-29T02:47:06.458Z,7.13
2019-03-29T02:52:42.104Z,6.92
2019-03-29T02:55:51.693Z,6.82
2019-03-29T02:58:40.715Z,6.82
2019-03-29T03:01:28.667Z,6.90
2019-03-29T03:03:57.347Z,6.85
2019-03-29T03:06:45.168Z,6.91
2019-03-29T03:09:32.936Z,6.95
2019-03-29T03:12:01.619Z,6.96
2019-03-29T03:14:50.836Z,6.92
2019-03-29T03:17:20.219Z,6.90
2019-03-29T03:19:48.810Z,6.83
2019-03-29T03:22:17.417Z,6.87
2019-03-29T03:25:25.431Z,6.72
2019-03-29T03:30:48.797Z,6.56
2019-03-29T03:33:17.789Z,6.77
2019-03-29T03:35:46.435Z,6.76
2019-03-29T03:38:15.075Z,6.65
2019-03-29T03:40:43.748Z,6.64
2019-03-29T03:43:12.393Z,6.61
2019-03-29T03:45:40.999Z,6.52
2019-03-29T03:48:09.600Z,6.50
2019-03-29T03:51:20.165Z,6.42
2019-03-29T03:53:48.915Z,6.40
2019-03-29T03:56:57.498Z,6.52
2019-03-29T03:59:26.805Z,6.47
2019-03-29T04:01:55.423Z,6.53
2019-03-29T04:07:18.668Z,6.46
2019-03-29T04:09:49.707Z,6.39
2019-03-29T04:12:18.426Z,6.23
2019-03-29T04:15:07.090Z,6.34
2019-03-29T04:17:36.707Z,6.31
2019-03-29T04:20:47.098Z,6.25
2019-03-29T04:23:16.564Z,6.29
2019-03-29T04:25:45.849Z,6.24
2019-03-29T04:34:12.062Z,6.37
2019-03-29T04:37:01.093Z,6.21
2019-03-29T04:42:25.951Z,6.25
2019-03-29T04:44:55.015Z,6.15
2019-03-29T04:50:18.358Z,6.30
2019-03-29T04:52:47.610Z,6.25
2019-03-29T04:55:18.307Z,6.27
2019-03-29T04:57:47.097Z,6.35
2019-03-29T05:00:34.966Z,6.39
2019-03-29T05:03:03.823Z,6.18
2019-03-29T05:05:51.730Z,6.21
2019-03-29T05:08:20.344Z,6.10
2019-03-29T05:11:08.285Z,5.98
2019-03-29T05:13:56.608Z,6.10
2019-03-29T05:16:25.745Z,5.97
2019-03-29T05:19:13.654Z,5.98
2019-03-29T05:21:42.322Z,6.02
2019-03-29T05:24:10.935Z,6.15
2019-03-29T05:26:58.817Z,6.20
2019-03-29T05:29:27.392Z,6.14
2019-03-29T05:31:55.951Z,6.15
2019-03-29T05:34:24.615Z,6.14
2019-03-29T05:36:53.181Z,6.18
2019-03-29T05:39:22.585Z,6.16
2019-03-29T05:42:10.414Z,6.20
2019-03-29T05:44:40.813Z,6.09
2019-03-29T05:47:09.463Z,6.16
2019-03-29T05:49:57.344Z,6.12
2019-03-29T05:52:45.225Z,6.24
2019-03-29T05:55:13.864Z,6.19
2019-03-29T05:58:01.806Z,6.33
2019-03-29T06:00:49.710Z,6.40
2019-03-29T06:03:18.402Z,6.41
2019-03-29T06:05:46.979Z,6.45
2019-03-29T06:08:34.923Z,6.49
2019-03-29T06:11:03.574Z,6.59
2019-03-29T06:13:51.604Z,6.60
2019-03-29T06:16:39.602Z,6.66
2019-03-29T06:19:09.780Z,6.72
2019-03-29T06:21:38.471Z,6.89
2019-03-29T06:24:07.125Z,7.00
2019-03-29T06:26:55.100Z,7.05
2019-03-29T06:29:23.672Z,7.25
2019-03-29T06:32:32.141Z,7.40
2019-03-29T06:35:00.811Z,7.61
2019-03-29T06:38:09.266Z,7.60
2019-03-29T06:41:03.009Z,7.67
2019-03-29T06:43:46.545Z,7.71
2019-03-29T06:46:34.408Z,7.79
2019-03-29T06:49:03.067Z,7.85
2019-03-29T06:51:50.945Z,8.05
2019-03-29T06:54:38.783Z,8.25
2019-03-29T06:57:07.451Z,9.04
2019-03-29T06:59:36.058Z,10.34
2019-03-29T07:02:04.709Z,11.61
2019-03-29T07:04:52.589Z,12.49
2019-03-29T07:07:21.202Z,12.57
2019-03-29T07:09:49.714Z,12.90
2019-03-29T07:12:18.403Z,13.61
2019-03-29T07:15:06.173Z,13.52
2019-03-29T07:17:34.835Z,13.77
2019-03-29T07:22:58.709Z,13.92
2019-03-29T07:25:27.402Z,14.23
2019-03-29T07:28:15.335Z,14.48
2019-03-29T07:30:43.836Z,13.97
2019-03-29T07:33:12.537Z,14.02
2019-03-29T07:35:41.046Z,14.68
2019-03-29T07:38:09.704Z,14.74
2019-03-29T07:40:38.404Z,15.01
2019-03-29T07:43:07.062Z,14.93
2019-03-29T07:45:54.858Z,14.57
2019-03-29T07:48:23.432Z,15.04
2019-03-29T07:50:52.074Z,15.48
2019-03-29T07:53:39.967Z,15.37
2019-03-29T07:56:27.867Z,15.24
2019-03-29T08:01:50.716Z,15.85
2019-03-29T08:04:21.655Z,16.07
2019-03-29T08:06:49.791Z,15.76
2019-03-29T08:09:39.263Z,15.35
2019-03-29T08:12:07.842Z,15.81
2019-03-29T08:14:36.535Z,14.69
2019-03-29T08:17:05.177Z,14.95
2019-03-29T08:19:37.009Z,14.93
2019-03-29T08:22:04.266Z,15.33
2019-03-29T08:24:52.083Z,15.25
2019-03-29T08:29:55.028Z,14.79
2019-03-29T08:32:42.897Z,15.01
2019-03-29T08:35:11.586Z,14.50
2019-03-29T08:37:40.273Z,13.88
2019-03-29T08:43:03.551Z,13.74
2019-03-29T08:45:32.239Z,13.52
2019-03-29T08:48:20.012Z,13.50
2019-03-29T08:50:48.664Z,13.52
2019-03-29T08:53:17.308Z,13.78
2019-03-29T08:55:46.537Z,13.82
2019-03-29T08:58:35.547Z,13.18
2019-03-29T09:01:04.319Z,13.22
2019-03-29T09:03:32.965Z,13.15
2019-03-29T09:06:12.801Z,13.67
2019-03-29T09:11:38.788Z,13.85
2019-03-29T09:14:06.105Z,14.02
2019-03-29T09:16:34.795Z,13.99
2019-03-29T09:19:03.479Z,13.94
2019-03-29T09:21:51.315Z,13.87
2019-03-29T09:24:39.051Z,13.94
2019-03-29T09:27:07.745Z,13.59
2019-03-29T09:29:55.628Z,14.05
2019-03-29T09:32:24.298Z,14.20
2019-03-29T09:35:12.148Z,14.22
2019-03-29T09:37:40.795Z,14.45
2019-03-29T09:43:08.185Z,14.53
2019-03-29T09:45:34.690Z,14.61
2019-03-29T09:48:03.338Z,14.94
2019-03-29T09:50:32.090Z,15.60
2019-03-29T09:53:01.446Z,15.47
2019-03-29T09:55:53.252Z,15.46
2019-03-29T09:58:20.632Z,15.82
2019-03-29T10:01:29.183Z,15.76
2019-03-29T10:03:59.453Z,15.95
2019-03-29T10:06:28.149Z,15.73
2019-03-29T10:08:56.796Z,16.05
2019-03-29T10:11:25.440Z,16.16
2019-03-29T10:13:54.050Z,15.85
2019-03-29T10:16:25.800Z,16.39
2019-03-29T10:18:53.149Z,16.34
2019-03-29T10:21:21.789Z,15.95
2019-03-29T10:23:50.493Z,16.33
2019-03-29T10:26:19.131Z,16.28
2019-03-29T10:28:47.771Z,15.78
2019-03-29T10:31:35.529Z,16.39
2019-03-29T10:34:04.259Z,16.64
2019-03-29T10:36:52.130Z,16.99
2019-03-29T10:39:20.760Z,16.97
2019-03-29T10:41:49.451Z,17.35
2019-03-29T10:44:37.321Z,17.09
2019-03-29T10:47:05.891Z,17.47
2019-03-29T10:49:34.585Z,17.30
2019-03-29T10:52:22.342Z,17.13
2019-03-29T10:54:51.026Z,17.46
2019-03-29T10:57:19.667Z,17.42
2019-03-29T11:02:43.326Z,17.24
2019-03-29T11:05:11.966Z,17.24
2019-03-29T11:07:40.652Z,17.44
2019-03-29T11:10:49.222Z,17.90
2019-03-29T11:13:17.904Z,17.82
2019-03-29T11:15:46.590Z,17.48
2019-03-29T11:18:34.457Z,17.39
2019-03-29T11:21:03.108Z,17.49
2019-03-29T11:23:31.708Z,17.27
2019-03-29T11:26:19.600Z,17.60
2019-03-29T11:28:48.287Z,17.99
2019-03-29T11:34:04.556Z,18.82
2019-03-29T11:36:53.041Z,18.64
2019-03-29T11:39:41.914Z,19.10
2019-03-29T11:42:29.720Z,19.22
2019-03-29T11:45:17.590Z,17.96
2019-03-29T11:48:08.804Z,18.28
2019-03-29T11:50:35.839Z,17.82
2019-03-29T11:53:44.252Z,17.87
2019-03-29T11:58:47.527Z,18.55
2019-03-29T12:01:35.477Z,18.26
2019-03-29T12:04:04.219Z,18.44
2019-03-29T12:06:52.169Z,18.75
2019-03-29T12:09:40.000Z,18.62
2019-03-29T12:12:27.879Z,19.00
2019-03-29T12:15:15.738Z,19.20
2019-03-29T12:18:03.620Z,19.15
2019-03-29T12:20:54.246Z,18.90
2019-03-29T12:23:21.801Z,19.37
2019-03-29T12:25:50.371Z,19.34
2019-03-29T12:28:38.311Z,19.34
2019-03-29T12:31:46.725Z,19.11
2019-03-29T12:34:34.663Z,19.19
2019-03-29T12:37:03.301Z,19.18
2019-03-29T12:39:51.126Z,18.83
2019-03-29T12:42:38.947Z,19.57
2019-03-29T12:45:47.427Z,18.39
2019-03-29T12:48:16.007Z,18.77
2019-03-29T12:50:44.690Z,19.25
2019-03-29T12:53:13.334Z,19.84
2019-03-29T12:56:01.223Z,20.12
2019-03-29T12:58:29.882Z,20.12
2019-03-29T13:01:17.817Z,19.43
2019-03-29T13:04:05.648Z,19.73
2019-03-29T13:07:24.876Z,19.87
2019-03-29T13:09:52.168Z,20.20
2019-03-29T13:12:40.081Z,20.33
2019-03-29T13:15:48.579Z,20.48
2019-03-29T13:18:17.437Z,19.74
2019-03-29T13:21:05.302Z,20.16
2019-03-29T13:23:33.909Z,19.76
2019-03-29T13:26:21.738Z,20.06
2019-03-29T13:28:50.429Z,20.29
2019-03-29T13:31:19.046Z,20.88
2019-03-29T13:33:47.652Z,21.10
2019-03-29T13:36:16.309Z,21.01
2019-03-29T13:38:44.922Z,20.76
2019-03-29T13:41:32.759Z,20.70
2019-03-29T13:44:24.116Z,20.85
2019-03-29T13:46:51.007Z,20.77
2019-03-29T13:49:38.741Z,20.41
2019-03-29T13:52:26.600Z,20.28
2019-03-29T13:55:14.428Z,20.46
2019-03-29T13:58:02.299Z,20.45
2019-03-29T14:00:50.179Z,19.99
2019-03-29T14:03:18.858Z,20.63
2019-03-29T14:05:47.497Z,20.37
2019-03-29T14:08:16.189Z,20.25
2019-03-29T14:10:44.849Z,20.56
2019-03-29T14:13:13.546Z,20.29
2019-03-29T14:15:42.137Z,20.75
2019-03-29T14:18:30.001Z,20.82
2019-03-29T14:21:17.895Z,19.82
2019-03-29T14:26:55.470Z,20.62
2019-03-29T14:29:43.330Z,19.50
2019-03-29T14:32:11.965Z,19.54
2019-03-29T14:34:40.537Z,20.39
2019-03-29T14:37:09.093Z,20.87
2019-03-29T14:39:56.969Z,21.30
2019-03-29T14:42:44.856Z,20.25
2019-03-29T14:45:13.555Z,20.54
2019-03-29T14:47:43.819Z,20.57
2019-03-29T14:50:52.398Z,20.24
2019-03-29T14:53:21.030Z,20.12
2019-03-29T14:55:49.682Z,20.15
2019-03-29T14:58:37.565Z,20.46
2019-03-29T15:01:06.141Z,19.12
2019-03-29T15:03:34.792Z,19.46
2019-03-29T15:06:22.670Z,19.31
2019-03-29T15:11:31.524Z,19.81
2019-03-29T15:14:19.388Z,20.07
2019-03-29T15:17:07.099Z,19.70
2019-03-29T15:19:54.843Z,20.00
2019-03-29T15:22:42.707Z,19.82
2019-03-29T15:25:30.592Z,19.92
2019-03-29T15:28:18.326Z,20.27
2019-03-29T15:31:06.214Z,20.37
2019-03-29T15:33:55.652Z,20.09
2019-03-29T15:36:24.484Z,19.92
2019-03-29T15:39:12.331Z,20.09
2019-03-29T15:42:00.074Z,19.33
2019-03-29T15:44:47.934Z,19.43
2019-03-29T15:47:16.508Z,19.65
2019-03-29T15:50:04.383Z,19.76
2019-03-29T15:52:52.100Z,19.64
2019-03-29T15:55:20.794Z,19.38
2019-03-29T15:58:08.619Z,19.46
2019-03-29T16:00:37.265Z,19.48
2019-03-29T16:03:25.136Z,19.41
2019-03-29T16:06:12.976Z,19.54
2019-03-29T16:09:00.795Z,18.78
2019-03-29T16:11:48.622Z,18.74
2019-03-29T16:14:36.508Z,18.55
2019-03-29T16:17:44.925Z,18.95
2019-03-29T16:20:13.605Z,18.78
2019-03-29T16:23:01.344Z,18.76
2019-03-29T16:25:29.987Z,18.59
2019-03-29T16:27:58.733Z,18.81
2019-03-29T16:30:27.387Z,18.26
2019-03-29T16:33:15.266Z,18.39
2019-03-29T16:36:03.209Z,17.97
2019-03-29T16:38:51.039Z,17.63
2019-03-29T16:41:38.836Z,17.54
2019-03-29T16:44:07.485Z,17.40
2019-03-29T16:46:55.271Z,17.45
2019-03-29T16:49:43.113Z,17.06
2019-03-29T16:52:30.990Z,17.02
2019-03-29T16:55:18.860Z,16.75
2019-03-29T16:58:06.705Z,16.74
2019-03-29T17:00:35.396Z,16.83
2019-03-29T17:03:23.230Z,16.84
2019-03-29T17:06:11.119Z,16.67
2019-03-29T17:08:59.015Z,16.66
2019-03-29T17:11:46.889Z,16.07
2019-03-29T17:14:34.809Z,16.03
2019-03-29T17:17:22.747Z,15.96
2019-03-29T17:20:10.692Z,15.70
2019-03-29T17:22:58.561Z,15.49
2019-03-29T17:28:42.556Z,15.17
2019-03-29T17:31:30.381Z,14.93
2019-03-29T17:33:59.086Z,14.73
2019-03-29T17:36:46.864Z,14.65
2019-03-29T17:39:34.773Z,14.58
2019-03-29T17:42:22.596Z,14.47
2019-03-29T17:44:51.291Z,14.31
2019-03-29T17:47:39.145Z,14.16
2019-03-29T17:50:47.627Z,14.09
2019-03-29T17:53:16.327Z,13.88
2019-03-29T17:55:44.926Z,13.77
2019-03-29T17:58:13.618Z,13.66
2019-03-29T18:01:01.525Z,13.58
2019-03-29T18:03:30.229Z,13.46
2019-03-29T18:06:18.051Z,13.35
2019-03-29T18:08:46.749Z,13.23
2019-03-29T18:11:34.576Z,13.11
2019-03-29T18:14:22.399Z,12.98
2019-03-29T18:17:10.232Z,12.87
2019-03-29T18:19:58.182Z,12.78
2019-03-29T18:22:26.825Z,12.73
2019-03-29T18:24:55.416Z,12.73
2019-03-29T18:27:24.050Z,12.61
2019-03-29T18:29:52.703Z,12.52
2019-03-29T18:32:40.578Z,12.60
2019-03-29T18:35:49.002Z,12.80
2019-03-29T18:38:17.689Z,12.76
2019-03-29T18:41:05.523Z,12.37
2019-03-29T18:43:34.208Z,12.23
2019-03-29T18:46:22.104Z,11.98
2019-03-29T18:49:09.974Z,12.07
2019-03-29T18:51:38.597Z,11.83
2019-03-29T18:54:26.531Z,11.60
2019-03-29T18:57:14.340Z,11.51
2019-03-29T19:00:02.213Z,11.39
2019-03-29T19:02:30.902Z,11.33
2019-03-29T19:04:59.558Z,11.20
2019-03-29T19:08:08.012Z,11.10
2019-03-29T19:10:36.653Z,11.02
2019-03-29T19:13:24.480Z,11.10
2019-03-29T19:15:53.172Z,11.01
2019-03-29T19:18:21.800Z,10.84
2019-03-29T19:21:09.600Z,10.78
2019-03-29T19:23:38.285Z,10.77
2019-03-29T19:26:06.942Z,10.66
2019-03-29T19:28:35.561Z,10.60
2019-03-29T19:31:04.253Z,10.62
2019-03-29T19:33:52.053Z,10.74
2019-03-29T19:36:39.878Z,10.61
2019-03-29T19:39:08.666Z,10.60
2019-03-29T19:41:37.312Z,10.68
2019-03-29T19:44:06.056Z,10.63
2019-03-29T19:46:34.630Z,10.58
2019-03-29T19:49:03.285Z,10.61
2019-03-29T19:51:38.809Z,10.57
2019-03-29T19:54:26.656Z,10.71
2019-03-29T19:56:55.338Z,10.53
2019-03-29T19:59:23.999Z,10.46
2019-03-29T20:01:52.647Z,10.33
2019-03-29T20:05:01.068Z,10.27
2019-03-29T20:07:29.754Z,10.21
2019-03-29T20:09:58.405Z,10.28
2019-03-29T20:12:27.088Z,10.26
2019-03-29T20:15:14.903Z,10.18
2019-03-29T20:17:43.472Z,10.04
2019-03-29T20:20:51.953Z,10.03
2019-03-29T20:23:39.811Z,10.08
2019-03-29T20:26:27.698Z,9.99
2019-03-29T20:28:56.378Z,9.85
2019-03-29T20:31:24.986Z,9.67
2019-03-29T20:34:12.738Z,9.51
2019-03-29T20:36:41.347Z,9.64
2019-03-29T20:39:10.037Z,9.26
2019-03-29T20:41:38.640Z,9.33
2019-03-29T20:44:07.286Z,9.55
2019-03-29T20:46:35.899Z,9.57
2019-03-29T20:49:04.543Z,9.13
2019-03-29T20:52:13.008Z,8.99
2019-03-29T20:54:41.697Z,9.14
2019-03-29T20:57:29.635Z,8.86
2019-03-29T20:59:58.298Z,8.96
2019-03-29T21:02:26.922Z,8.66
2019-03-29T21:04:55.571Z,8.57
2019-03-29T21:07:24.256Z,8.48
2019-03-29T21:10:12.244Z,8.45
2019-03-29T21:12:40.934Z,8.39
2019-03-29T21:15:49.398Z,8.70
2019-03-29T21:18:18.090Z,8.69
2019-03-29T21:21:05.869Z,8.61
2019-03-29T21:23:34.562Z,8.73
2019-03-29T21:26:03.254Z,8.53
2019-03-29T21:28:34.924Z,8.58
2019-03-29T21:31:02.234Z,8.43
2019-03-29T21:33:50.070Z,8.35
2019-03-29T21:36:18.771Z,8.29
2019-03-29T21:38:47.456Z,8.38
2019-03-29T21:41:16.102Z,8.28
2019-03-29T21:43:44.796Z,8.09
2019-03-29T21:46:13.374Z,7.94
2019-03-29T21:49:01.321Z,7.89
2019-03-29T21:51:30.005Z,7.85
2019-03-29T21:53:58.577Z,7.78
2019-03-29T21:56:27.226Z,7.99
2019-03-29T21:58:55.854Z,8.03
2019-03-29T22:01:24.537Z,7.82
2019-03-29T22:03:53.221Z,7.70
2019-03-29T22:06:21.872Z,7.90
2019-03-29T22:08:50.488Z,7.78
2019-03-29T22:11:19.110Z,7.60
2019-03-29T22:13:47.809Z,7.62
2019-03-29T22:16:16.472Z,7.54
2019-03-29T22:18:45.177Z,7.55
2019-03-29T22:21:13.786Z,7.74
2019-03-29T22:23:42.426Z,7.61
2019-03-29T22:26:11.129Z,7.50
2019-03-29T22:28:39.739Z,7.52
2019-03-29T22:31:08.363Z,7.53
2019-03-29T22:36:54.859Z,7.72
2019-03-29T22:39:42.739Z,7.62
2019-03-29T22:42:11.326Z,7.55
2019-03-29T22:44:39.938Z,7.44
2019-03-29T22:47:08.618Z,7.35
2019-03-29T22:49:37.301Z,7.30
2019-03-29T22:52:05.922Z,7.35
2019-03-29T22:54:34.571Z,7.40
2019-03-29T22:57:03.277Z,7.48
2019-03-29T22:59:51.231Z,7.50
2019-03-29T23:02:59.670Z,7.12
2019-03-29T23:05:28.372Z,7.04
2019-03-29T23:07:57.026Z,6.97
2019-03-29T23:10:25.532Z,7.18
2019-03-29T23:13:13.416Z,7.29
2019-03-29T23:16:01.284Z,7.15
2019-03-29T23:18:29.938Z,7.11
2019-03-29T23:20:58.608Z,7.06
2019-03-29T23:23:27.113Z,7.22
2019-03-29T23:26:14.933Z,7.19
2019-03-29T23:29:02.933Z,7.13
2019-03-29T23:31:31.540Z,7.14
2019-03-29T23:34:00.156Z,7.19
2019-03-29T23:36:47.986Z,7.22
2019-03-29T23:39:56.597Z,7.24
2019-03-29T23:42:25.566Z,6.99
2019-03-29T23:45:13.401Z,6.70
2019-03-29T23:48:01.309Z,6.58
2019-03-29T23:50:29.912Z,6.27
2019-03-29T23:52:58.571Z,6.22
2019-03-29T23:55:27.258Z,6.41
2019-03-29T23:57:55.943Z,6.24
